createdAt,value
2022-12-23T00:01:24.660Z,99514.06
2022-12-23T00:03:53.127Z,99508.59
2022-12-23T00:06:22.151Z,99500.81
2022-12-23T00:08:58.902Z,99509.38
2022-12-23T00:11:28.960Z,99493.72
2022-12-23T00:14:20.521Z,99486.03
2022-12-23T00:16:49.163Z,99483.84
2022-12-23T00:19:17.597Z,99488.44
2022-12-23T00:21:45.924Z,99491.44
2022-12-23T00:24:15.505Z,99488.63
2022-12-23T00:26:43.787Z,99489.78
2022-12-23T00:29:12.594Z,99493.94
2022-12-23T00:31:40.890Z,99491.44
2022-12-23T00:34:10.093Z,99489.28
2022-12-23T00:36:47.189Z,99486.47
2022-12-23T00:39:34.425Z,99496.88
2022-12-23T00:42:20.534Z,99490.31
2022-12-23T00:44:48.787Z,99483.66
2022-12-23T00:47:30.755Z,99480.97
2022-12-23T00:49:59.073Z,99482.88
2022-12-23T00:52:27.573Z,99478.47
2022-12-23T00:54:57.156Z,99474.09
2022-12-23T00:57:25.413Z,99479.31
2022-12-23T00:59:54.303Z,99478.22
2022-12-23T01:02:40.107Z,99490.84
2022-12-23T01:05:27.894Z,99480.31
2022-12-23T01:07:56.155Z,99466.09
2022-12-23T01:10:25.799Z,99481.47
2022-12-23T01:12:54.113Z,99477.03
2022-12-23T01:15:22.441Z,99475.34
2022-12-23T01:17:50.675Z,99472.34
2022-12-23T01:20:19.237Z,99468.19
2022-12-23T01:22:47.643Z,99461.84
2022-12-23T01:25:15.823Z,99458.25
2022-12-23T01:27:45.387Z,99456.34
2022-12-23T01:30:14.551Z,99450.84
2022-12-23T01:32:42.778Z,99462.34
2022-12-23T01:35:11.070Z,99472.56
2022-12-23T01:37:39.416Z,99464.88
2022-12-23T01:40:09.863Z,99475.31
2022-12-23T01:42:46.805Z,99465.44
2022-12-23T01:45:19.897Z,99473.44
2022-12-23T01:47:51.540Z,99459.38
2022-12-23T01:50:22.500Z,99449.94
2022-12-23T01:52:53.403Z,99447.16
2022-12-23T01:55:24.405Z,99454.31
2022-12-23T01:57:53.278Z,99447.66
2022-12-23T02:00:40.602Z,99444.66
2022-12-23T02:03:34.873Z,99436.16
2022-12-23T02:06:17.650Z,99444.16
2022-12-23T02:09:03.410Z,99433.72
2022-12-23T02:11:49.188Z,99434.47
2022-12-23T02:14:44.894Z,99428.50
2022-12-23T02:17:22.152Z,99448.50
2022-12-23T02:20:29.343Z,99453.78
2022-12-23T02:23:16.783Z,99456.84
2022-12-23T02:25:54.953Z,99453.31
2022-12-23T02:28:41.878Z,99443.41
2022-12-23T02:31:21.185Z,99441.75
2022-12-23T02:33:55.862Z,99445.06
2022-12-23T02:36:38.144Z,99434.84
2022-12-23T02:39:09.932Z,99433.22
2022-12-23T02:41:43.774Z,99433.75
2022-12-23T02:44:20.683Z,99442.38
2022-12-23T02:46:51.722Z,99433.53
2022-12-23T02:49:23.272Z,99429.69
2022-12-23T02:51:54.540Z,99419.44
2022-12-23T02:54:26.372Z,99425.25
2022-12-23T02:56:55.706Z,99423.00
2022-12-23T02:59:27.145Z,99420.84
2022-12-23T03:01:57.585Z,99417.56
2022-12-23T03:04:25.844Z,99417.56
2022-12-23T03:06:56.327Z,99426.41
2022-12-23T03:09:30.526Z,99431.59
2022-12-23T03:12:05.452Z,99418.63
2022-12-23T03:14:52.256Z,99423.06
2022-12-23T03:17:32.523Z,99428.03
2022-12-23T03:20:07.152Z,99423.59
2022-12-23T03:22:39.687Z,99425.50
2022-12-23T03:25:12.619Z,99415.88
2022-12-23T03:27:45.411Z,99407.34
2022-12-23T03:30:15.767Z,99396.09
2022-12-23T03:32:50.524Z,99407.63
2022-12-23T03:35:21.277Z,99415.28
2022-12-23T03:37:50.999Z,99410.41
2022-12-23T03:40:21.700Z,99434.06
2022-12-23T03:42:54.471Z,99426.91
2022-12-23T03:45:41.400Z,99432.69
2022-12-23T03:48:15.910Z,99429.16
2022-12-23T03:50:45.084Z,99431.38
2022-12-23T03:53:17.489Z,99430.28
2022-12-23T03:55:49.835Z,99442.41
2022-12-23T03:58:25.618Z,99423.16
2022-12-23T04:00:59.891Z,99431.66
2022-12-23T04:03:33.443Z,99427.00
2022-12-23T04:06:04.363Z,99434.72
2022-12-23T04:08:35.068Z,99423.22
2022-12-23T04:11:04.485Z,99427.59
2022-12-23T04:13:32.969Z,99427.88
2022-12-23T04:16:02.348Z,99417.72
2022-12-23T04:18:32.116Z,99416.59
2022-12-23T04:21:01.080Z,99423.28
2022-12-23T04:23:29.358Z,99429.91
2022-12-23T04:25:57.676Z,99429.38
2022-12-23T04:28:25.871Z,99422.19
2022-12-23T04:30:54.085Z,99434.03
2022-12-23T04:33:22.411Z,99430.19
2022-12-23T04:35:52.532Z,99425.50
2022-12-23T04:38:20.773Z,99430.72
2022-12-23T04:40:49.134Z,99432.13
2022-12-23T04:43:17.299Z,99428.84
2022-12-23T04:45:45.451Z,99436.00
2022-12-23T04:48:13.743Z,99422.81
2022-12-23T04:50:41.956Z,99425.00
2022-12-23T04:53:11.589Z,99430.50
2022-12-23T04:55:39.924Z,99428.31
2022-12-23T04:58:08.172Z,99435.16
2022-12-23T05:00:39.754Z,99431.63
2022-12-23T05:03:08.721Z,99422.78
2022-12-23T05:05:37.093Z,99434.34
2022-12-23T05:08:07.203Z,99434.63
2022-12-23T05:10:36.946Z,99425.00
2022-12-23T05:13:05.145Z,99426.13
2022-12-23T05:15:34.185Z,99426.97
2022-12-23T05:18:02.508Z,99424.47
2022-12-23T05:20:30.753Z,99429.47
2022-12-23T05:22:59.003Z,99417.28
2022-12-23T05:25:27.518Z,99387.97
2022-12-23T05:27:57.149Z,99412.88
2022-12-23T05:30:25.390Z,99411.75
2022-12-23T05:32:54.535Z,99415.88
2022-12-23T05:35:22.997Z,99413.41
2022-12-23T05:37:51.259Z,99409.03
2022-12-23T05:40:23.568Z,99406.78
2022-12-23T05:42:53.406Z,99401.88
2022-12-23T05:45:23.192Z,99405.69
2022-12-23T05:47:51.435Z,99401.03
2022-12-23T05:50:21.895Z,99409.53
2022-12-23T05:52:50.164Z,99396.91
2022-12-23T05:55:18.520Z,99400.44
2022-12-23T05:57:47.238Z,99402.41
2022-12-23T06:00:17.211Z,99401.56
2022-12-23T06:02:53.310Z,99403.47
2022-12-23T06:05:22.397Z,99399.66
2022-12-23T06:07:50.651Z,99396.97
2022-12-23T06:10:18.932Z,99394.50
2022-12-23T06:12:47.704Z,99402.47
2022-12-23T06:15:15.975Z,99406.88
2022-12-23T06:17:44.179Z,99403.53
2022-12-23T06:20:20.188Z,99401.38
2022-12-23T06:22:48.835Z,99402.16
2022-12-23T06:25:17.139Z,99407.66
2022-12-23T06:27:45.375Z,99404.91
2022-12-23T06:30:14.471Z,99403.53
2022-12-23T06:32:43.002Z,99413.47
2022-12-23T06:35:11.668Z,99399.72
2022-12-23T06:37:41.283Z,99404.13
2022-12-23T06:40:10.923Z,99403.53
2022-12-23T06:42:39.042Z,99394.22
2022-12-23T06:45:09.036Z,99387.88
2022-12-23T06:47:39.685Z,99395.22
2022-12-23T06:50:09.207Z,99399.59
2022-12-23T06:52:37.416Z,99397.41
2022-12-23T06:55:07.946Z,99394.41
2022-12-23T06:57:36.128Z,99391.06
2022-12-23T07:00:05.131Z,99396.56
2022-12-23T07:02:34.716Z,99391.41
2022-12-23T07:05:02.945Z,99379.28
2022-12-23T07:07:32.992Z,99380.91
2022-12-23T07:10:01.330Z,99388.59
2022-12-23T07:12:31.181Z,99392.44
2022-12-23T07:14:59.468Z,99384.44
2022-12-23T07:17:27.995Z,99388.03
2022-12-23T07:19:56.419Z,99389.69
2022-12-23T07:22:24.613Z,99399.59
2022-12-23T07:24:52.918Z,99386.94
2022-12-23T07:27:21.338Z,99395.78
2022-12-23T07:29:50.886Z,99388.03
2022-12-23T07:32:19.100Z,99380.06
2022-12-23T07:34:47.860Z,99386.69
2022-12-23T07:37:16.059Z,99373.53
2022-12-23T07:39:44.354Z,99373.22
2022-12-23T07:45:02.863Z,99363.28
2022-12-23T07:47:33.463Z,99371.88
2022-12-23T07:50:01.615Z,99372.16
2022-12-23T07:52:31.890Z,99365.31
2022-12-23T07:55:00.300Z,99362.28
2022-12-23T07:57:29.437Z,99362.28
2022-12-23T07:59:58.159Z,99361.25
2022-12-23T08:02:27.845Z,99370.06
2022-12-23T08:04:57.365Z,99359.34
2022-12-23T08:07:25.595Z,99351.91
2022-12-23T08:09:53.752Z,99353.81
2022-12-23T08:12:22.098Z,99357.09
2022-12-23T08:14:51.393Z,99356.56
2022-12-23T08:17:21.398Z,99352.97
2022-12-23T08:19:51.511Z,99354.06
2022-12-23T08:22:19.819Z,99352.16
2022-12-23T08:24:48.125Z,99344.72
2022-12-23T08:27:16.443Z,99344.72
2022-12-23T08:29:44.731Z,99352.72
2022-12-23T08:32:13.040Z,99342.53
2022-12-23T08:34:41.414Z,99341.44
2022-12-23T08:37:11.174Z,99346.41
2022-12-23T08:39:39.439Z,99346.41
2022-12-23T08:42:07.719Z,99346.41
2022-12-23T08:44:36.045Z,99343.66
2022-12-23T08:47:04.816Z,99341.47
2022-12-23T08:49:33.041Z,99343.16
2022-12-23T08:52:01.691Z,99350.31
2022-12-23T08:54:31.452Z,99340.97
2022-12-23T08:56:59.627Z,99334.94
2022-12-23T08:59:27.800Z,99331.06
2022-12-23T09:01:57.016Z,99322.78
2022-12-23T09:04:25.304Z,99327.69
2022-12-23T09:06:53.619Z,99324.09
2022-12-23T09:09:22.063Z,99326.06
2022-12-23T09:11:51.617Z,99321.69
2022-12-23T09:14:19.795Z,99324.47
2022-12-23T09:16:48.191Z,99321.19
2022-12-23T09:19:16.451Z,99309.59
2022-12-23T09:21:44.637Z,99310.41
2022-12-23T09:24:13.936Z,99316.22
2022-12-23T09:26:42.110Z,99309.41
2022-12-23T09:29:11.759Z,99308.56
2022-12-23T09:31:40.222Z,99316.81
2022-12-23T09:34:08.395Z,99318.44
2022-12-23T09:36:36.620Z,99322.84
2022-12-23T09:39:05.372Z,99310.19
2022-12-23T09:41:48.937Z,99314.03
2022-12-23T09:44:33.992Z,99300.56
2022-12-23T09:47:04.984Z,99295.31
2022-12-23T09:49:33.980Z,99301.38
2022-12-23T09:52:05.057Z,99290.91
2022-12-23T09:54:39.619Z,99281.00
2022-12-23T09:57:12.912Z,99281.03
2022-12-23T09:59:53.147Z,99267.84
2022-12-23T10:02:26.685Z,99280.25
2022-12-23T10:05:03.031Z,99277.75
2022-12-23T10:07:35.652Z,99276.91
2022-12-23T10:10:09.287Z,99275.53
2022-12-23T10:12:40.690Z,99268.38
2022-12-23T10:15:29.935Z,99263.97
2022-12-23T10:18:02.127Z,99271.13
2022-12-23T10:20:38.103Z,99262.28
2022-12-23T10:23:10.461Z,99265.03
2022-12-23T10:25:42.924Z,99261.22
2022-12-23T10:28:11.585Z,99244.41
2022-12-23T10:31:05.912Z,99236.69
2022-12-23T10:33:38.569Z,99236.69
2022-12-23T10:36:11.236Z,99228.16
2022-12-23T10:39:00.042Z,99232.03
2022-12-23T10:41:34.789Z,99219.09
2022-12-23T10:44:28.045Z,99208.13
2022-12-23T10:47:03.933Z,99199.63
2022-12-23T10:49:39.753Z,99214.75
2022-12-23T10:52:14.496Z,99206.19
2022-12-23T10:54:44.476Z,99201.25
2022-12-23T10:57:15.874Z,99197.13
2022-12-23T10:59:45.601Z,99198.78
2022-12-23T11:02:31.449Z,99195.75
2022-12-23T11:05:00.979Z,99200.72
2022-12-23T11:07:46.713Z,99189.13
2022-12-23T11:10:18.942Z,99199.03
2022-12-23T11:12:49.193Z,99206.47
2022-12-23T11:15:30.158Z,99200.13
2022-12-23T11:18:06.249Z,99202.34
2022-12-23T11:20:36.431Z,99198.47
2022-12-23T11:23:06.341Z,99189.97
2022-12-23T11:25:37.218Z,99203.44
2022-12-23T11:28:09.151Z,99195.72
2022-12-23T11:30:39.775Z,99193.53
2022-12-23T11:33:20.230Z,99180.34
2022-12-23T11:35:48.511Z,99191.34
2022-12-23T11:38:16.945Z,99188.03
2022-12-23T11:40:48.147Z,99167.91
2022-12-23T11:43:17.444Z,99197.69
2022-12-23T11:45:45.838Z,99195.19
2022-12-23T11:48:31.303Z,99194.63
2022-12-23T11:51:00.707Z,99198.47
2022-12-23T11:53:29.074Z,99198.47
2022-12-23T11:56:01.888Z,99194.63
2022-12-23T11:58:31.995Z,99202.88
2022-12-23T12:01:07.597Z,99205.63
2022-12-23T12:03:46.880Z,99205.63
2022-12-23T12:06:17.283Z,99199.00
2022-12-23T12:08:45.468Z,99205.06
2022-12-23T12:11:15.472Z,99200.38
2022-12-23T12:13:45.793Z,99205.91
2022-12-23T12:16:29.759Z,99197.91
2022-12-23T12:19:04.361Z,99197.88
2022-12-23T12:21:36.260Z,99187.19
2022-12-23T12:24:18.508Z,99192.94
2022-12-23T12:26:51.346Z,99191.31
2022-12-23T12:29:22.755Z,99189.63
2022-12-23T12:31:52.906Z,99191.03
2022-12-23T12:34:37.618Z,99186.94
2022-12-23T12:37:11.967Z,99185.28
2022-12-23T12:39:44.903Z,99181.97
2022-12-23T12:42:17.304Z,99182.50
2022-12-23T12:44:55.802Z,99179.75
2022-12-23T12:47:52.762Z,99174.81
2022-12-23T12:50:22.248Z,99170.69
2022-12-23T12:52:51.705Z,99157.16
2022-12-23T12:55:24.727Z,99164.06
2022-12-23T12:57:53.149Z,99172.06
2022-12-23T13:00:24.485Z,99173.72
2022-12-23T13:03:10.966Z,99167.09
2022-12-23T13:05:53.547Z,99169.03
2022-12-23T13:08:32.486Z,99161.06
2022-12-23T13:11:05.456Z,99160.50
2022-12-23T13:13:41.436Z,99163.81
2022-12-23T13:16:17.448Z,99161.91
2022-12-23T13:18:49.967Z,99160.50
2022-12-23T13:21:23.429Z,99161.06
2022-12-23T13:24:01.926Z,99143.97
2022-12-23T13:26:37.340Z,99158.56
2022-12-23T13:29:34.033Z,99147.56
2022-12-23T13:32:13.253Z,99153.06
2022-12-23T13:34:48.598Z,99156.38
2022-12-23T13:37:26.150Z,99152.22
2022-12-23T13:39:58.899Z,99145.09
2022-12-23T13:42:31.759Z,99147.28
2022-12-23T13:45:00.916Z,99146.72
2022-12-23T13:47:39.254Z,99136.28
2022-12-23T13:50:12.297Z,99134.91
2022-12-23T13:52:56.128Z,99124.44
2022-12-23T13:55:41.976Z,99129.09
2022-12-23T13:58:13.250Z,99133.78
2022-12-23T14:00:41.580Z,99147.28
2022-12-23T14:03:24.889Z,99143.16
2022-12-23T14:05:54.205Z,99140.41
2022-12-23T14:08:30.843Z,99144.50
2022-12-23T14:11:01.089Z,99137.34
2022-12-23T14:13:31.964Z,99143.16
2022-12-23T14:16:17.550Z,99136.22
2022-12-23T14:18:57.928Z,99140.66
2022-12-23T14:21:35.188Z,99137.34
2022-12-23T14:24:35.923Z,99128.81
2022-12-23T14:27:30.258Z,99132.44
2022-12-23T14:30:08.567Z,99122.25
2022-12-23T14:32:45.683Z,99122.50
2022-12-23T14:35:21.642Z,99108.72
2022-12-23T14:38:24.441Z,99117.56
2022-12-23T14:41:10.402Z,99123.59
2022-12-23T14:44:06.257Z,99119.75
2022-12-23T14:46:59.111Z,99125.84
2022-12-23T14:49:43.011Z,99120.03
2022-12-23T14:52:49.770Z,99119.22
2022-12-23T14:55:57.282Z,99119.22
2022-12-23T14:58:46.657Z,99110.41
2022-12-23T15:01:17.797Z,99110.41
2022-12-23T15:03:49.578Z,99100.50
2022-12-23T15:06:24.719Z,99110.41
2022-12-23T15:08:55.660Z,99097.19
2022-12-23T15:11:28.464Z,99110.44
2022-12-23T15:14:00.376Z,99113.44
2022-12-23T15:16:33.913Z,99110.13
2022-12-23T15:19:03.791Z,99105.47
2022-12-23T15:21:34.142Z,99104.66
2022-12-23T15:24:02.887Z,99093.91
2022-12-23T15:26:33.396Z,99091.44
2022-12-23T15:29:03.016Z,99093.91
2022-12-23T15:31:34.203Z,99096.13
2022-12-23T15:34:08.869Z,99099.97
2022-12-23T15:36:44.008Z,99099.69
2022-12-23T15:39:19.635Z,99092.28
2022-12-23T15:41:49.557Z,99099.97
2022-12-23T15:44:23.024Z,99087.84
2022-12-23T15:46:51.327Z,99101.63
2022-12-23T15:49:20.224Z,99090.59
2022-12-23T15:52:07.295Z,99086.19
2022-12-23T15:54:38.334Z,99084.53
2022-12-23T15:57:06.685Z,99074.63
2022-12-23T15:59:38.388Z,99065.28
2022-12-23T16:02:32.494Z,99081.00
2022-12-23T16:05:01.527Z,99078.53
2022-12-23T16:07:35.331Z,99081.25
2022-12-23T16:10:12.689Z,99092.28
2022-12-23T16:12:42.034Z,99073.53
2022-12-23T16:15:23.715Z,99071.63
2022-12-23T16:17:51.963Z,99078.53
2022-12-23T16:20:25.348Z,99071.34
2022-12-23T16:22:53.648Z,99079.06
2022-12-23T16:25:25.194Z,99072.47
2022-12-23T16:28:00.506Z,99079.06
2022-12-23T16:30:33.110Z,99063.09
2022-12-23T16:33:03.398Z,99063.63
2022-12-23T16:35:35.458Z,99067.78
2022-12-23T16:38:13.651Z,99080.72
2022-12-23T16:40:44.863Z,99075.78
2022-12-23T16:43:13.467Z,99078.53
2022-12-23T16:45:43.577Z,99073.56
2022-12-23T16:48:14.919Z,99070.25
2022-12-23T16:50:43.303Z,99065.84
2022-12-23T16:53:13.923Z,99067.50
2022-12-23T16:55:50.219Z,99068.06
2022-12-23T16:58:20.885Z,99058.13
2022-12-23T17:00:50.721Z,99042.19
2022-12-23T17:03:20.474Z,99058.13
2022-12-23T17:05:49.440Z,99060.88
2022-12-23T17:08:18.387Z,99059.25
2022-12-23T17:10:46.775Z,99065.31
2022-12-23T17:13:17.275Z,99052.09
2022-12-23T17:15:45.896Z,99057.84
2022-12-23T17:18:17.579Z,99057.06
2022-12-23T17:20:47.128Z,99053.75
2022-12-23T17:23:27.955Z,99056.50
2022-12-23T17:25:56.547Z,99060.88
2022-12-23T17:28:24.804Z,99043.53
2022-12-23T17:30:55.946Z,99059.78
2022-12-23T17:33:29.670Z,99066.38
2022-12-23T17:35:58.141Z,99064.19
2022-12-23T17:38:27.509Z,99063.06
2022-12-23T17:40:58.636Z,99071.91
2022-12-23T17:43:27.119Z,99058.97
2022-12-23T17:45:55.449Z,99065.56
2022-12-23T17:48:31.179Z,99058.66
2022-12-23T17:51:00.123Z,99065.78
2022-12-23T17:53:28.380Z,99058.41
2022-12-23T17:55:57.075Z,99063.03
2022-12-23T17:58:25.612Z,99067.47
2022-12-23T18:00:54.621Z,99070.19
2022-12-23T18:03:25.272Z,99067.19
2022-12-23T18:06:01.219Z,99062.50
2022-12-23T18:08:31.000Z,99058.91
2022-12-23T18:11:03.006Z,99060.28
2022-12-23T18:13:31.305Z,99069.38
2022-12-23T18:15:59.756Z,99074.09
2022-12-23T18:18:37.958Z,99063.84
2022-12-23T18:21:16.089Z,99066.34
2022-12-23T18:23:44.524Z,99071.91
2022-12-23T18:26:15.195Z,99071.88
2022-12-23T18:28:43.565Z,99078.47
2022-12-23T18:31:17.044Z,99075.72
2022-12-23T18:33:46.534Z,99071.28
2022-12-23T18:36:22.890Z,99070.19
2022-12-23T18:38:53.059Z,99070.75
2022-12-23T18:41:21.707Z,99081.22
2022-12-23T18:43:50.494Z,99075.16
2022-12-23T18:46:20.212Z,99061.94
2022-12-23T18:48:50.231Z,99083.38
2022-12-23T18:51:20.297Z,99071.50
2022-12-23T18:53:49.001Z,99077.81
2022-12-23T18:56:20.266Z,99073.72
2022-12-23T18:58:48.859Z,99066.88
2022-12-23T19:01:19.474Z,99074.06
2022-12-23T19:03:49.462Z,99079.88
2022-12-23T19:06:17.933Z,99079.31
2022-12-23T19:08:46.219Z,99079.31
2022-12-23T19:11:17.747Z,99074.09
2022-12-23T19:13:46.253Z,99074.59
2022-12-23T19:16:15.627Z,99076.84
2022-12-23T19:18:44.213Z,99079.59
2022-12-23T19:21:13.899Z,99064.72
2022-12-23T19:23:42.425Z,99078.78
2022-12-23T19:26:11.383Z,99086.72
2022-12-23T19:28:41.440Z,99087.56
2022-12-23T19:31:10.341Z,99082.88
2022-12-23T19:33:39.001Z,99095.81
2022-12-23T19:36:11.849Z,99098.78
2022-12-23T19:38:41.665Z,99092.75
2022-12-23T19:41:10.570Z,99097.16
2022-12-23T19:43:39.973Z,99092.44
2022-12-23T19:46:09.658Z,99091.31
2022-12-23T19:48:39.895Z,99094.41
2022-12-23T19:51:09.699Z,99077.88
2022-12-23T19:53:38.208Z,99100.44
2022-12-23T19:56:09.680Z,99113.72
2022-12-23T19:58:39.423Z,99094.94
2022-12-23T20:01:13.298Z,99114.81
2022-12-23T20:03:42.427Z,99113.13
2022-12-23T20:06:17.315Z,99120.84
2022-12-23T20:08:45.764Z,99121.91
2022-12-23T20:11:17.543Z,99123.59
2022-12-23T20:13:46.357Z,99123.59
2022-12-23T20:16:14.900Z,99126.63
2022-12-23T20:18:43.199Z,99124.16
2022-12-23T20:21:11.423Z,99121.94
2022-12-23T20:23:39.694Z,99120.56
2022-12-23T20:26:08.286Z,99126.94
2022-12-23T20:28:37.871Z,99132.97
2022-12-23T20:31:09.082Z,99131.84
2022-12-23T20:33:37.716Z,99144.56
2022-12-23T20:36:07.930Z,99139.06
2022-12-23T20:38:36.996Z,99141.81
2022-12-23T20:41:05.475Z,99105.19
2022-12-23T20:43:34.770Z,99138.47
2022-12-23T20:46:06.168Z,99140.19
2022-12-23T20:48:34.902Z,99155.31
2022-12-23T20:51:06.198Z,99145.38
2022-12-23T20:53:34.619Z,99152.81
2022-12-23T20:56:02.941Z,99151.16
2022-12-23T20:58:48.899Z,99149.81
2022-12-23T21:01:18.951Z,99136.53
2022-12-23T21:03:47.554Z,99159.41
2022-12-23T21:06:15.989Z,99161.94
2022-12-23T21:08:44.250Z,99157.75
2022-12-23T21:11:12.492Z,99157.25
2022-12-23T21:13:40.805Z,99166.66
2022-12-23T21:16:10.897Z,99162.53
2022-12-23T21:18:42.886Z,99166.66
2022-12-23T21:21:11.623Z,99165.00
2022-12-23T21:23:41.161Z,99164.44
2022-12-23T21:26:12.223Z,99171.31
2022-12-23T21:28:41.562Z,99178.75
2022-12-23T21:31:10.571Z,99185.41
2022-12-23T21:33:40.033Z,99181.53
2022-12-23T21:36:13.708Z,99187.03
2022-12-23T21:38:46.937Z,99180.97
2022-12-23T21:41:16.642Z,99188.16
2022-12-23T21:43:44.979Z,99190.91
2022-12-23T21:46:15.527Z,99195.84
2022-12-23T21:48:44.442Z,99193.66
2022-12-23T21:51:15.556Z,99193.38
2022-12-23T21:53:45.062Z,99201.91
2022-12-23T21:56:15.115Z,99201.91
2022-12-23T21:58:43.732Z,99196.97
2022-12-23T22:01:13.602Z,99195.31
2022-12-23T22:03:42.160Z,99195.56
2022-12-23T22:06:12.890Z,99193.38
2022-12-23T22:08:42.651Z,99202.47
2022-12-23T22:11:12.751Z,99199.16
2022-12-23T22:13:41.327Z,99203.00
2022-12-23T22:16:11.950Z,99209.91
2022-12-23T22:18:41.255Z,99188.13
2022-12-23T22:21:10.319Z,99208.50
2022-12-23T22:23:39.028Z,99209.59
2022-12-23T22:26:09.669Z,99218.97
2022-12-23T22:28:40.190Z,99211.28
2022-12-23T22:31:10.069Z,99218.44
2022-12-23T22:33:38.400Z,99212.66
2022-12-23T22:36:07.604Z,99211.28
2022-12-23T22:38:36.502Z,99219.00
2022-12-23T22:41:04.961Z,99224.22
2022-12-23T22:43:34.802Z,99222.84
2022-12-23T22:46:03.544Z,99234.97
2022-12-23T22:48:32.360Z,99234.44
2022-12-23T22:51:04.775Z,99241.88
2022-12-23T22:53:33.519Z,99245.44
2022-12-23T22:56:02.595Z,99242.13
2022-12-23T22:58:32.479Z,99248.19
2022-12-23T23:01:02.423Z,99248.19
2022-12-23T23:03:30.992Z,99261.97
2022-12-23T23:06:00.842Z,99262.50
2022-12-23T23:08:29.491Z,99263.63
2022-12-23T23:10:58.345Z,99276.25
2022-12-23T23:13:27.263Z,99263.84
2022-12-23T23:15:56.130Z,99269.06
2022-12-23T23:18:26.245Z,99276.78
2022-12-23T23:20:54.880Z,99272.41
2022-12-23T23:23:23.711Z,99282.59
2022-12-23T23:25:52.065Z,99267.97
2022-12-23T23:28:20.602Z,99284.47
2022-12-23T23:30:55.405Z,99282.25
2022-12-23T23:33:33.474Z,99286.09
2022-12-23T23:36:01.786Z,99276.19
2022-12-23T23:38:29.963Z,99284.16
2022-12-23T23:40:59.282Z,99284.44
2022-12-23T23:43:27.595Z,99282.25
2022-12-23T23:45:55.851Z,99282.81
2022-12-23T23:48:24.242Z,99282.00
2022-12-23T23:50:53.896Z,99275.38
2022-12-23T23:53:22.136Z,99285.59
2022-12-23T23:55:50.619Z,99282.31
2022-12-23T23:58:18.876Z,99290.00
